Terminal Aerodrome Forecast
Issued by NWS

Home | Current Version | Previous Version | Text Only | Print | Product List | Glossary On
Versions: 1 2 3 4 5 6 7 8 9 10 11 12 13 14 15 16 17 18 19 20 21 22
000
FTUS45 KLKN 041720
TAFEKO
TAF
KEKO 041720Z 0418/0518 24008KT P6SM SCT200
     FM041900 24016G26KT P6SM BKN110
     FM042200 24016G26KT 5SM HZ BKN110
     FM050200 25007G14KT P6SM BKN110
     FM050900 08002KT P6SM SCT110=

USA.gov is the U.S. government's official web portal to all federal, state and local government web resources and services.